createdAt,value
2023-03-07T00:00:45.128Z,572.00
2023-03-07T00:01:45.122Z,572.00
2023-03-07T00:02:45.223Z,569.00
2023-03-07T00:03:45.143Z,568.00
2023-03-07T00:04:45.092Z,568.00
2023-03-07T00:55:30.698Z,576.00
2023-03-07T00:56:31.650Z,575.00
2023-03-07T00:57:31.644Z,578.00
2023-03-07T00:58:31.636Z,576.00
2023-03-07T00:59:31.630Z,574.00
2023-03-07T01:00:31.618Z,575.00
2023-03-07T01:01:31.642Z,575.00
2023-03-07T01:02:31.615Z,573.00
2023-03-07T01:03:31.588Z,574.00
2023-03-07T01:04:31.679Z,574.00
2023-03-07T01:05:31.572Z,574.00
2023-03-07T01:06:31.560Z,575.00
2023-03-07T01:07:31.573Z,575.00
2023-03-07T01:08:31.553Z,576.00
2023-03-07T01:09:31.536Z,577.00
2023-03-07T01:10:31.538Z,578.00
2023-03-07T01:11:31.536Z,576.00
2023-03-07T01:12:31.526Z,574.00
2023-03-07T01:13:31.501Z,575.00
2023-03-07T01:14:31.508Z,576.00
2023-03-07T01:15:31.488Z,577.00
2023-03-07T01:16:31.573Z,579.00
2023-03-07T01:17:31.457Z,579.00
2023-03-07T01:18:31.457Z,575.00
2023-03-07T01:19:31.443Z,575.00
2023-03-07T01:20:31.438Z,573.00
2023-03-07T01:21:31.438Z,574.00
2023-03-07T01:22:31.420Z,575.00
2023-03-07T01:23:31.409Z,575.00
2023-03-07T01:24:31.400Z,573.00
2023-03-07T01:25:31.381Z,571.00
2023-03-07T01:26:31.390Z,572.00
2023-03-07T01:27:31.408Z,573.00
2023-03-07T01:28:31.362Z,572.00
2023-03-07T01:29:31.358Z,572.00
2023-03-07T01:30:31.340Z,573.00
2023-03-07T01:31:31.361Z,574.00
2023-03-07T01:32:31.349Z,572.00
2023-03-07T01:33:31.316Z,570.00
2023-03-07T01:34:31.305Z,571.00
2023-03-07T01:35:31.299Z,567.00
2023-03-07T01:36:31.396Z,568.00
2023-03-07T01:37:31.276Z,569.00
2023-03-07T01:38:31.274Z,567.00
2023-03-07T01:39:31.260Z,565.00
2023-03-07T01:40:31.249Z,563.00
2023-03-07T01:41:31.243Z,565.00
2023-03-07T01:42:31.229Z,563.00
2023-03-07T01:43:31.251Z,564.00
2023-03-07T01:44:31.212Z,563.00
2023-03-07T01:45:31.279Z,563.00
2023-03-07T01:46:31.199Z,566.00
2023-03-07T01:47:31.193Z,565.00
2023-03-07T01:48:31.174Z,565.00
2023-03-07T01:49:31.234Z,567.00
2023-03-07T01:50:31.156Z,569.00
2023-03-07T01:51:31.151Z,567.00
2023-03-07T01:52:31.132Z,567.00
2023-03-07T01:53:31.121Z,566.00
2023-03-07T01:54:31.123Z,568.00
2023-03-07T01:55:31.146Z,567.00
2023-03-07T01:56:31.098Z,566.00
2023-03-07T01:57:31.097Z,566.00
2023-03-07T01:58:31.085Z,567.00
2023-03-07T01:59:31.110Z,563.00
2023-03-07T02:00:31.088Z,564.00
2023-03-07T02:01:31.137Z,564.00
2023-03-07T02:02:31.046Z,565.00
2023-03-07T02:03:31.031Z,565.00
2023-03-07T02:04:31.057Z,563.00
2023-03-07T02:05:31.027Z,563.00
2023-03-07T02:06:31.029Z,565.00
2023-03-07T02:07:30.994Z,566.00
2023-03-07T02:08:30.985Z,567.00
2023-03-07T02:09:30.974Z,568.00
2023-03-07T02:10:30.999Z,568.00
2023-03-07T02:11:30.968Z,569.00
2023-03-07T02:12:30.948Z,569.00
2023-03-07T02:13:30.945Z,569.00
2023-03-07T02:14:30.925Z,569.00
2023-03-07T02:15:30.940Z,568.00
2023-03-07T02:16:30.913Z,568.00
2023-03-07T02:17:30.902Z,569.00
2023-03-07T02:18:30.893Z,567.00
2023-03-07T02:19:30.885Z,566.00
2023-03-07T02:20:30.878Z,565.00
2023-03-07T02:21:30.884Z,564.00
2023-03-07T02:22:30.857Z,565.00
2023-03-07T02:23:30.855Z,562.00
2023-03-07T02:24:30.837Z,565.00
2023-03-07T02:25:30.848Z,565.00
2023-03-07T02:26:30.840Z,562.00
2023-03-07T02:27:30.820Z,562.00
2023-03-07T02:28:30.818Z,562.00
2023-03-07T02:29:30.790Z,565.00
2023-03-07T02:30:30.784Z,565.00
2023-03-07T02:31:30.815Z,566.00
2023-03-07T02:32:30.837Z,570.00
2023-03-07T02:33:30.761Z,568.00
2023-03-07T02:34:30.745Z,567.00
2023-03-07T02:35:30.764Z,566.00
2023-03-07T02:36:30.731Z,565.00
2023-03-07T02:37:30.716Z,563.00
2023-03-07T02:38:30.709Z,561.00
2023-03-07T02:39:30.699Z,562.00
2023-03-07T02:40:30.693Z,562.00
2023-03-07T02:41:30.686Z,563.00
2023-03-07T02:42:30.676Z,564.00
2023-03-07T02:43:30.663Z,563.00
2023-03-07T02:44:30.686Z,562.00
2023-03-07T02:45:30.655Z,563.00
2023-03-07T02:46:30.674Z,564.00
2023-03-07T02:47:30.665Z,562.00
2023-03-07T02:48:30.618Z,560.00
2023-03-07T02:49:30.614Z,559.00
2023-03-07T02:50:30.602Z,559.00
2023-03-07T02:51:30.599Z,560.00
2023-03-07T02:52:30.587Z,561.00
2023-03-07T02:53:30.571Z,561.00
2023-03-07T02:54:30.563Z,562.00
2023-03-07T02:55:30.565Z,565.00
2023-03-07T02:56:30.548Z,565.00
2023-03-07T02:57:30.537Z,563.00
2023-03-07T02:58:30.525Z,563.00
2023-03-07T02:59:30.516Z,564.00
2023-03-07T03:00:30.521Z,565.00
2023-03-07T03:01:30.527Z,563.00
2023-03-07T03:02:30.496Z,561.00
2023-03-07T03:03:30.508Z,561.00
2023-03-07T03:04:30.539Z,564.00
2023-03-07T03:05:30.476Z,564.00
2023-03-07T03:06:30.460Z,562.00
2023-03-07T03:07:30.448Z,561.00
2023-03-07T03:08:30.445Z,560.00
2023-03-07T03:09:30.430Z,559.00
2023-03-07T03:10:30.429Z,558.00
2023-03-07T03:11:30.424Z,560.00
2023-03-07T03:12:30.405Z,562.00
2023-03-07T03:13:30.398Z,562.00
2023-03-07T03:14:30.414Z,560.00
2023-03-07T03:15:30.381Z,560.00
2023-03-07T03:16:30.434Z,560.00
2023-03-07T03:17:30.365Z,562.00
2023-03-07T03:18:30.352Z,561.00
2023-03-07T03:19:30.366Z,563.00
2023-03-07T03:20:30.340Z,563.00
2023-03-07T03:21:30.347Z,562.00
2023-03-07T03:22:30.312Z,564.00
2023-03-07T03:23:30.303Z,563.00
2023-03-07T03:24:30.293Z,563.00
2023-03-07T03:25:30.338Z,562.00
2023-03-07T03:26:30.277Z,561.00
2023-03-07T03:27:30.312Z,564.00
2023-03-07T03:28:30.256Z,566.00
2023-03-07T03:29:30.248Z,565.00
2023-03-07T03:30:30.238Z,563.00
2023-03-07T03:31:30.587Z,563.00
2023-03-07T03:32:30.254Z,564.00
2023-03-07T03:33:30.271Z,564.00
2023-03-07T03:34:30.205Z,563.00
2023-03-07T03:35:30.332Z,561.00
2023-03-07T03:36:30.181Z,560.00
2023-03-07T03:37:30.169Z,558.00
2023-03-07T03:39:30.170Z,554.00
2023-03-07T06:38:29.494Z,556.00
2023-03-07T06:54:29.384Z,709.00
2023-03-07T07:42:29.018Z,924.00
2023-03-07T07:46:28.067Z,738.00
2023-03-07T08:38:27.996Z,951.00
2023-03-07T08:42:28.674Z,961.00
2023-03-07T09:51:26.781Z,1015.00
2023-03-07T10:25:27.459Z,997.00
2023-03-07T10:36:26.601Z,858.00
2023-03-07T10:39:26.329Z,858.00
2023-03-07T10:40:26.294Z,857.00
2023-03-07T10:55:26.174Z,833.00
2023-03-07T11:01:26.185Z,840.00
2023-03-07T11:58:25.572Z,636.00
2023-03-07T12:18:25.419Z,752.00
2023-03-07T12:19:25.417Z,745.00
2023-03-07T12:20:25.378Z,740.00
2023-03-07T12:21:25.650Z,738.00
2023-03-07T12:23:25.668Z,732.00
2023-03-07T12:25:25.338Z,724.00
2023-03-07T12:27:26.770Z,722.00
2023-03-07T12:28:25.645Z,721.00
2023-03-07T12:30:25.345Z,714.00
2023-03-07T12:31:25.404Z,714.00
2023-03-07T12:32:25.606Z,715.00
2023-03-07T12:33:27.438Z,712.00
2023-03-07T12:35:25.333Z,711.00
2023-03-07T12:36:25.323Z,709.00
2023-03-07T12:37:25.303Z,714.00
2023-03-07T12:38:25.645Z,727.00
2023-03-07T12:40:25.646Z,758.00
2023-03-07T12:41:25.265Z,766.00
2023-03-07T12:42:25.238Z,773.00
2023-03-07T12:43:25.237Z,777.00
2023-03-07T12:44:25.221Z,781.00
2023-03-07T12:45:27.260Z,783.00
2023-03-07T12:47:25.191Z,773.00
2023-03-07T12:49:25.180Z,750.00
2023-03-07T12:50:25.650Z,743.00
2023-03-07T12:52:25.158Z,730.00
2023-03-07T12:53:25.144Z,721.00
2023-03-07T12:54:25.144Z,713.00
2023-03-07T12:56:25.154Z,708.00
2023-03-07T12:58:25.146Z,708.00
2023-03-07T12:59:25.149Z,705.00
2023-03-07T13:00:25.153Z,704.00
2023-03-07T13:02:25.056Z,694.00
2023-03-07T13:03:25.050Z,693.00
2023-03-07T13:04:25.126Z,690.00
2023-03-07T13:05:25.151Z,690.00
2023-03-07T13:06:25.157Z,688.00
2023-03-07T13:07:26.003Z,686.00
2023-03-07T13:08:25.001Z,686.00
2023-03-07T13:09:24.999Z,685.00
2023-03-07T13:10:25.159Z,684.00
2023-03-07T13:11:25.059Z,682.00
2023-03-07T13:12:24.965Z,683.00
2023-03-07T13:13:25.645Z,687.00
2023-03-07T13:14:24.941Z,687.00
2023-03-07T13:15:25.187Z,684.00
2023-03-07T13:16:25.972Z,682.00
2023-03-07T13:17:24.930Z,679.00
2023-03-07T13:18:24.912Z,677.00
2023-03-07T13:19:26.734Z,670.00
2023-03-07T13:21:24.883Z,662.00
2023-03-07T13:22:24.875Z,658.00
2023-03-07T13:23:24.907Z,653.00
2023-03-07T13:24:24.848Z,650.00
2023-03-07T13:25:27.169Z,649.00
2023-03-07T13:26:25.155Z,648.00
2023-03-07T13:27:24.866Z,646.00
2023-03-07T13:28:24.811Z,642.00
2023-03-07T13:29:24.808Z,641.00
2023-03-07T13:30:24.801Z,639.00
2023-03-07T13:31:26.428Z,639.00
2023-03-07T13:32:24.783Z,634.00
2023-03-07T13:33:24.776Z,629.00
2023-03-07T13:34:24.758Z,626.00
2023-03-07T13:35:24.789Z,620.00
2023-03-07T13:36:25.163Z,617.00
2023-03-07T13:37:25.975Z,616.00
2023-03-07T13:38:24.803Z,615.00
2023-03-07T13:39:24.716Z,615.00
2023-03-07T13:40:25.176Z,609.00
2023-03-07T13:41:24.694Z,608.00
2023-03-07T13:42:24.683Z,608.00
2023-03-07T13:43:27.681Z,605.00
2023-03-07T13:44:24.703Z,602.00
2023-03-07T13:45:24.658Z,598.00
2023-03-07T13:46:24.665Z,593.00
2023-03-07T13:47:24.665Z,591.00
2023-03-07T13:48:24.634Z,592.00
2023-03-07T13:49:25.759Z,593.00
2023-03-07T13:50:24.640Z,593.00
2023-03-07T13:51:24.833Z,589.00
2023-03-07T13:52:24.664Z,588.00
2023-03-07T13:53:24.671Z,589.00
2023-03-07T13:54:24.661Z,587.00
2023-03-07T13:55:24.571Z,584.00
2023-03-07T13:56:24.672Z,584.00
2023-03-07T13:57:27.119Z,582.00
2023-03-07T13:58:24.537Z,578.00
2023-03-07T13:59:24.669Z,577.00
2023-03-07T14:00:24.558Z,577.00
2023-03-07T14:01:24.741Z,577.00
2023-03-07T14:02:24.509Z,575.00
2023-03-07T14:03:26.465Z,573.00
2023-03-07T14:04:38.932Z,572.00
2023-03-07T14:05:24.484Z,572.00
2023-03-07T14:06:24.474Z,573.00
2023-03-07T14:07:24.456Z,571.00
2023-03-07T14:08:24.525Z,570.00
2023-03-07T14:09:24.731Z,568.00
2023-03-07T14:10:24.516Z,565.00
2023-03-07T14:11:24.451Z,564.00
2023-03-07T14:12:24.444Z,563.00
2023-03-07T14:13:24.407Z,561.00
2023-03-07T14:14:24.678Z,561.00
2023-03-07T14:15:24.414Z,563.00
2023-03-07T14:16:24.447Z,560.00
2023-03-07T14:17:24.676Z,559.00
2023-03-07T14:18:24.375Z,557.00
2023-03-07T14:19:24.676Z,558.00
2023-03-07T14:20:24.346Z,556.00
2023-03-07T14:21:24.333Z,556.00
2023-03-07T14:22:24.682Z,553.00
2023-03-07T14:23:24.318Z,554.00
2023-03-07T14:24:24.680Z,557.00
2023-03-07T14:25:24.300Z,558.00
2023-03-07T14:26:24.289Z,557.00
2023-03-07T14:27:24.282Z,557.00
2023-03-07T14:28:24.302Z,558.00
2023-03-07T14:29:24.707Z,559.00
2023-03-07T14:30:24.250Z,558.00
2023-03-07T14:31:24.370Z,554.00
2023-03-07T14:32:24.293Z,555.00
2023-03-07T14:33:24.240Z,554.00
2023-03-07T14:34:24.689Z,554.00
2023-03-07T14:35:24.221Z,555.00
2023-03-07T14:36:24.717Z,555.00
2023-03-07T14:37:24.694Z,554.00
2023-03-07T14:38:24.182Z,551.00
2023-03-07T14:39:24.189Z,549.00
2023-03-07T14:40:24.179Z,550.00
2023-03-07T14:41:24.158Z,549.00
2023-03-07T14:42:24.152Z,546.00
2023-03-07T14:43:24.143Z,545.00
2023-03-07T14:44:24.189Z,541.00
2023-03-07T14:45:24.201Z,538.00
2023-03-07T14:46:24.156Z,536.00
2023-03-07T14:47:24.131Z,534.00
2023-03-07T14:48:24.150Z,536.00
2023-03-07T14:49:24.136Z,535.00
2023-03-07T14:50:24.197Z,537.00
2023-03-07T14:51:24.062Z,538.00
2023-03-07T14:52:30.767Z,537.00
2023-03-07T14:53:24.042Z,536.00
2023-03-07T14:54:24.032Z,537.00
2023-03-07T14:55:24.198Z,536.00
2023-03-07T14:56:24.294Z,535.00
2023-03-07T14:57:24.008Z,533.00
2023-03-07T14:58:23.996Z,535.00
2023-03-07T14:59:28.948Z,532.00
2023-03-07T15:00:24.184Z,530.00
2023-03-07T15:01:24.040Z,528.00
2023-03-07T15:02:23.976Z,526.00
2023-03-07T15:03:23.973Z,525.00
2023-03-07T15:04:23.979Z,525.00
2023-03-07T15:05:24.194Z,528.00
2023-03-07T15:06:23.925Z,528.00
2023-03-07T15:07:23.908Z,529.00
2023-03-07T15:08:23.901Z,529.00
2023-03-07T15:09:23.901Z,526.00
2023-03-07T15:10:24.187Z,525.00
2023-03-07T15:11:23.877Z,524.00
2023-03-07T15:12:23.863Z,524.00
2023-03-07T15:13:24.191Z,523.00
2023-03-07T15:14:23.842Z,523.00
2023-03-07T15:15:23.899Z,523.00
2023-03-07T15:16:24.847Z,523.00
2023-03-07T15:17:23.820Z,522.00
2023-03-07T15:18:23.810Z,522.00
2023-03-07T15:19:23.828Z,520.00
2023-03-07T15:20:24.208Z,520.00
2023-03-07T15:21:23.800Z,521.00
2023-03-07T15:22:23.823Z,523.00
2023-03-07T15:23:23.778Z,528.00
2023-03-07T15:24:24.198Z,526.00
2023-03-07T15:25:25.941Z,524.00
2023-03-07T15:26:24.201Z,525.00
2023-03-07T15:27:24.211Z,524.00
2023-03-07T15:28:23.774Z,522.00
2023-03-07T15:29:23.713Z,521.00
2023-03-07T15:30:23.716Z,521.00
2023-03-07T15:31:23.751Z,521.00
2023-03-07T15:32:24.369Z,521.00
2023-03-07T15:33:23.685Z,518.00
2023-03-07T15:34:23.684Z,518.00
2023-03-07T15:35:23.686Z,520.00
2023-03-07T15:36:23.743Z,518.00
2023-03-07T15:37:23.659Z,518.00
2023-03-07T15:38:23.652Z,518.00
2023-03-07T15:39:23.638Z,517.00
2023-03-07T15:40:23.708Z,516.00
2023-03-07T15:41:23.617Z,517.00
2023-03-07T15:42:23.654Z,518.00
2023-03-07T15:43:23.592Z,517.00
2023-03-07T15:44:23.587Z,516.00
2023-03-07T15:45:23.674Z,516.00
2023-03-07T15:46:23.719Z,517.00
2023-03-07T15:47:23.557Z,517.00
2023-03-07T15:48:23.546Z,519.00
2023-03-07T15:49:23.545Z,517.00
2023-03-07T15:50:23.545Z,517.00
2023-03-07T15:51:23.546Z,517.00
2023-03-07T15:52:23.537Z,518.00
2023-03-07T15:53:23.506Z,520.00
2023-03-07T15:54:23.488Z,519.00
2023-03-07T15:55:23.494Z,517.00
2023-03-07T15:56:23.514Z,513.00
2023-03-07T15:57:23.489Z,511.00
2023-03-07T15:58:23.723Z,510.00
2023-03-07T15:59:23.515Z,512.00
2023-03-07T16:00:25.324Z,514.00
2023-03-07T16:01:23.491Z,510.00
2023-03-07T16:02:23.415Z,510.00
2023-03-07T16:03:23.546Z,510.00
2023-03-07T16:04:23.408Z,508.00
2023-03-07T16:05:23.429Z,506.00
2023-03-07T16:06:23.384Z,506.00
2023-03-07T16:07:23.405Z,507.00
2023-03-07T16:08:23.368Z,510.00
2023-03-07T16:09:23.722Z,514.00
2023-03-07T16:10:23.721Z,514.00
2023-03-07T16:11:23.333Z,512.00
2023-03-07T16:12:23.338Z,511.00
2023-03-07T16:13:23.321Z,511.00
2023-03-07T16:14:23.309Z,507.00
2023-03-07T16:15:23.722Z,507.00
2023-03-07T16:16:23.529Z,508.00
2023-03-07T16:17:23.277Z,506.00
2023-03-07T16:18:23.278Z,506.00
2023-03-07T16:19:23.271Z,507.00
2023-03-07T16:20:23.250Z,508.00
2023-03-07T16:21:23.241Z,511.00
2023-03-07T16:22:23.232Z,513.00
2023-03-07T16:23:23.262Z,512.00
2023-03-07T16:24:23.223Z,513.00
2023-03-07T16:25:23.210Z,512.00
2023-03-07T16:26:23.209Z,514.00
2023-03-07T16:27:23.188Z,516.00
2023-03-07T16:28:23.186Z,515.00
2023-03-07T16:29:23.188Z,515.00
2023-03-07T16:30:23.161Z,515.00
2023-03-07T16:31:23.179Z,515.00
2023-03-07T16:32:23.267Z,515.00
2023-03-07T16:33:23.136Z,515.00
2023-03-07T16:34:23.127Z,514.00
2023-03-07T16:35:23.109Z,515.00
2023-03-07T16:36:23.107Z,517.00
2023-03-07T16:37:23.093Z,518.00
2023-03-07T16:38:23.089Z,516.00
2023-03-07T16:39:23.103Z,518.00
2023-03-07T16:40:23.115Z,520.00
2023-03-07T16:41:23.074Z,518.00
